createdAt,value
2023-09-23T00:02:48.213Z,22.05
2023-09-23T00:05:37.819Z,22.12
2023-09-23T00:08:25.663Z,21.94
2023-09-23T00:11:14.812Z,21.69
2023-09-23T00:14:02.776Z,21.88
2023-09-23T00:16:50.701Z,21.87
2023-09-23T00:19:41.598Z,21.74
2023-09-23T00:22:29.616Z,21.80
2023-09-23T00:25:19.787Z,21.50
2023-09-23T00:28:12.002Z,21.71
2023-09-23T00:31:11.468Z,21.67
2023-09-23T00:34:00.187Z,21.54
2023-09-23T00:36:48.095Z,21.65
2023-09-23T00:39:42.920Z,21.48
2023-09-23T00:42:31.110Z,21.63
2023-09-23T00:45:23.518Z,21.65
2023-09-23T00:48:12.306Z,21.81
2023-09-23T00:51:01.237Z,21.69
2023-09-23T00:53:49.925Z,21.63
2023-09-23T00:56:38.157Z,21.42
2023-09-23T00:59:25.973Z,21.46
2023-09-23T01:02:15.544Z,21.59
2023-09-23T01:05:03.924Z,21.55
2023-09-23T01:07:52.624Z,21.43
2023-09-23T01:10:40.763Z,21.08
2023-09-23T01:13:31.302Z,21.20
2023-09-23T01:16:20.396Z,21.11
2023-09-23T01:19:10.989Z,21.03
2023-09-23T01:21:58.922Z,21.11
2023-09-23T01:24:48.014Z,21.39
2023-09-23T01:27:36.276Z,21.07
2023-09-23T01:30:25.411Z,21.10
2023-09-23T01:33:14.023Z,21.06
2023-09-23T01:36:04.407Z,21.07
2023-09-23T01:38:52.189Z,20.92
2023-09-23T01:41:42.010Z,20.92
2023-09-23T01:44:29.889Z,21.04
2023-09-23T01:47:23.036Z,20.99
2023-09-23T01:50:11.945Z,20.82
2023-09-23T01:53:01.850Z,20.70
2023-09-23T01:55:49.635Z,20.62
2023-09-23T01:58:38.770Z,20.64
2023-09-23T02:01:27.574Z,20.55
2023-09-23T02:04:16.213Z,20.55
2023-09-23T02:07:04.098Z,20.49
2023-09-23T02:09:51.958Z,20.55
2023-09-23T02:12:39.771Z,20.56
2023-09-23T02:15:28.918Z,20.31
2023-09-23T02:18:16.899Z,20.64
2023-09-23T02:21:05.072Z,20.43
2023-09-23T02:23:52.961Z,20.32
2023-09-23T02:26:40.677Z,20.34
2023-09-23T02:29:28.675Z,20.28
2023-09-23T02:32:17.854Z,20.25
2023-09-23T02:35:07.536Z,20.31
2023-09-23T02:37:55.919Z,20.26
2023-09-23T02:40:44.950Z,20.32
2023-09-23T02:43:33.020Z,20.22
2023-09-23T02:46:20.870Z,20.18
2023-09-23T02:49:10.866Z,20.05
2023-09-23T02:51:58.615Z,20.09
2023-09-23T02:54:46.304Z,19.97
2023-09-23T02:57:36.489Z,20.09
2023-09-23T03:00:25.728Z,20.18
2023-09-23T03:03:20.394Z,20.28
2023-09-23T03:06:12.009Z,20.43
2023-09-23T03:09:00.956Z,20.13
2023-09-23T03:11:54.605Z,19.95
2023-09-23T03:14:44.201Z,20.06
2023-09-23T03:17:33.514Z,20.21
2023-09-23T03:20:24.132Z,20.13
2023-09-23T03:23:13.417Z,19.97
2023-09-23T03:26:01.818Z,20.50
2023-09-23T03:28:50.937Z,20.11
2023-09-23T03:31:38.721Z,19.87
2023-09-23T03:34:27.520Z,20.17
2023-09-23T03:37:16.368Z,19.93
2023-09-23T03:40:09.227Z,20.10
2023-09-23T03:42:56.947Z,19.74
2023-09-23T03:45:44.835Z,19.58
2023-09-23T03:48:32.662Z,19.64
2023-09-23T03:51:20.269Z,19.85
2023-09-23T03:54:08.758Z,19.79
2023-09-23T03:56:58.254Z,19.53
2023-09-23T03:59:46.036Z,19.53
2023-09-23T04:02:34.449Z,19.64
2023-09-23T04:05:25.005Z,19.72
2023-09-23T04:08:13.949Z,19.51
2023-09-23T04:11:04.296Z,19.62
2023-09-23T04:13:53.540Z,19.53
2023-09-23T04:16:41.353Z,19.51
2023-09-23T04:19:29.427Z,19.29
2023-09-23T04:22:19.407Z,19.28
2023-09-23T04:25:08.043Z,19.22
2023-09-23T04:27:57.029Z,19.20
2023-09-23T04:30:46.147Z,19.13
2023-09-23T04:33:33.932Z,19.26
2023-09-23T04:36:22.519Z,19.17
2023-09-23T04:39:10.332Z,19.21
2023-09-23T04:41:58.149Z,19.08
2023-09-23T04:44:46.099Z,19.19
2023-09-23T04:47:36.357Z,19.11
2023-09-23T04:50:26.215Z,19.20
2023-09-23T04:53:14.084Z,19.22
2023-09-23T04:56:01.943Z,19.25
2023-09-23T04:58:49.973Z,19.28
2023-09-23T05:01:38.025Z,19.12
2023-09-23T05:04:27.291Z,19.00
2023-09-23T05:07:15.650Z,19.13
2023-09-23T05:10:03.368Z,18.94
2023-09-23T05:12:55.291Z,19.23
2023-09-23T05:15:44.721Z,19.42
2023-09-23T05:18:32.645Z,19.45
2023-09-23T05:21:21.992Z,19.45
2023-09-23T05:24:11.458Z,19.66
2023-09-23T05:27:01.187Z,19.90
2023-09-23T05:29:52.032Z,19.85
2023-09-23T05:32:40.127Z,19.95
2023-09-23T05:35:29.173Z,20.24
2023-09-23T05:38:18.322Z,20.10
2023-09-23T05:41:06.476Z,20.24
2023-09-23T05:43:54.624Z,20.60
2023-09-23T05:46:43.562Z,20.52
2023-09-23T05:49:32.814Z,20.74
2023-09-23T05:52:20.503Z,20.74
2023-09-23T05:55:10.437Z,20.74
2023-09-23T05:57:58.189Z,20.79
2023-09-23T06:00:47.273Z,20.89
2023-09-23T06:03:35.169Z,21.09
2023-09-23T06:06:23.257Z,21.21
2023-09-23T06:09:11.061Z,21.40
2023-09-23T06:12:00.048Z,21.51
2023-09-23T06:14:48.122Z,21.65
2023-09-23T06:17:38.443Z,21.79
2023-09-23T06:20:26.785Z,21.76
2023-09-23T06:23:14.430Z,21.95
2023-09-23T06:26:04.011Z,21.73
2023-09-23T06:28:53.261Z,21.97
2023-09-23T06:31:41.176Z,22.00
2023-09-23T06:34:29.180Z,22.30
2023-09-23T06:37:17.119Z,22.48
2023-09-23T06:40:06.547Z,22.31
2023-09-23T06:42:54.318Z,22.46
2023-09-23T06:45:43.512Z,22.29
2023-09-23T06:48:31.433Z,22.48
2023-09-23T06:51:19.109Z,22.58
2023-09-23T06:54:08.265Z,22.71
2023-09-23T06:56:56.164Z,22.25
2023-09-23T06:59:44.276Z,22.67
2023-09-23T07:02:33.439Z,22.90
2023-09-23T07:05:21.363Z,23.09
2023-09-23T07:08:09.169Z,23.09
2023-09-23T07:10:57.339Z,23.30
2023-09-23T07:13:46.116Z,23.35
2023-09-23T07:16:34.777Z,23.43
2023-09-23T07:19:24.271Z,23.46
2023-09-23T07:22:12.072Z,23.60
2023-09-23T07:24:59.978Z,23.76
2023-09-23T07:27:48.122Z,23.67
2023-09-23T07:30:36.907Z,23.86
2023-09-23T07:33:24.938Z,24.02
2023-09-23T07:36:14.730Z,24.03
2023-09-23T07:39:03.291Z,24.02
2023-09-23T07:41:51.288Z,23.75
2023-09-23T07:44:38.996Z,24.27
2023-09-23T07:47:27.872Z,24.34
2023-09-23T07:50:15.760Z,24.64
2023-09-23T07:53:05.233Z,24.66
2023-09-23T07:55:53.008Z,24.66
2023-09-23T07:58:41.057Z,24.73
2023-09-23T08:01:28.807Z,24.98
2023-09-23T08:04:16.641Z,24.87
2023-09-23T08:07:04.534Z,25.23
2023-09-23T08:09:53.810Z,25.17
2023-09-23T08:12:41.794Z,25.26
2023-09-23T08:15:29.473Z,25.40
2023-09-23T08:18:17.550Z,25.35
2023-09-23T08:21:07.309Z,25.53
2023-09-23T08:23:55.233Z,25.49
2023-09-23T08:26:44.349Z,25.50
2023-09-23T08:29:32.792Z,25.50
2023-09-23T08:32:20.858Z,25.81
2023-09-23T08:35:09.493Z,25.90
2023-09-23T08:37:57.481Z,25.77
2023-09-23T08:40:46.583Z,26.00
2023-09-23T08:43:38.908Z,25.96
2023-09-23T08:46:28.202Z,25.99
2023-09-23T08:49:16.203Z,26.41
2023-09-23T08:52:05.455Z,26.48
2023-09-23T08:54:53.164Z,26.57
2023-09-23T08:57:41.931Z,26.68
2023-09-23T09:00:32.020Z,26.65
2023-09-23T09:03:19.875Z,26.62
2023-09-23T09:06:17.837Z,26.78
2023-09-23T09:09:05.743Z,26.23
2023-09-23T09:11:56.077Z,26.85
2023-09-23T09:14:43.748Z,26.67
2023-09-23T09:17:35.497Z,27.02
2023-09-23T09:20:23.686Z,27.31
2023-09-23T09:23:16.197Z,27.22
2023-09-23T09:26:04.014Z,27.27
2023-09-23T09:28:51.813Z,27.21
2023-09-23T09:31:39.930Z,27.36
2023-09-23T09:34:33.841Z,27.36
2023-09-23T09:37:25.214Z,27.59
2023-09-23T09:40:18.250Z,27.35
2023-09-23T09:43:06.861Z,27.66
2023-09-23T09:45:56.636Z,27.67
2023-09-23T09:48:48.172Z,27.87
2023-09-23T09:51:38.304Z,27.92
2023-09-23T09:54:27.701Z,28.08
2023-09-23T09:57:16.035Z,28.07
2023-09-23T10:00:09.909Z,28.19
2023-09-23T10:03:07.251Z,28.51
2023-09-23T10:06:01.433Z,28.27
2023-09-23T10:08:52.917Z,28.33
2023-09-23T10:11:40.869Z,28.74
2023-09-23T10:14:28.909Z,28.71
2023-09-23T10:17:16.761Z,28.63
2023-09-23T10:20:12.093Z,28.65
2023-09-23T10:23:00.979Z,28.64
2023-09-23T10:25:53.685Z,28.78
2023-09-23T10:28:42.106Z,28.66
2023-09-23T10:31:31.306Z,28.98
2023-09-23T10:34:19.131Z,28.97
2023-09-23T10:37:06.912Z,29.41
2023-09-23T10:39:54.731Z,29.45
2023-09-23T10:42:44.310Z,29.65
2023-09-23T10:45:32.861Z,29.51
2023-09-23T10:48:20.790Z,29.68
2023-09-23T10:51:10.177Z,29.76
2023-09-23T10:53:58.598Z,29.45
2023-09-23T10:56:46.477Z,29.88
2023-09-23T10:59:35.905Z,29.58
2023-09-23T11:02:26.269Z,29.98
2023-09-23T11:05:16.356Z,30.03
2023-09-23T11:08:04.530Z,29.98
2023-09-23T11:10:52.258Z,29.67
2023-09-23T11:13:39.940Z,29.81
2023-09-23T11:16:29.272Z,30.01
2023-09-23T11:19:18.623Z,30.04
2023-09-23T11:22:06.524Z,30.01
2023-09-23T11:24:55.358Z,30.06
2023-09-23T11:27:48.954Z,29.98
2023-09-23T11:30:37.016Z,30.21
2023-09-23T11:33:27.163Z,30.07
2023-09-23T11:36:15.170Z,30.36
2023-09-23T11:39:03.430Z,30.68
2023-09-23T11:41:58.598Z,30.70
2023-09-23T11:44:46.543Z,30.39
2023-09-23T11:47:34.421Z,30.30
2023-09-23T11:50:24.060Z,30.28
2023-09-23T11:53:12.258Z,30.42
2023-09-23T11:56:00.119Z,30.40
2023-09-23T11:59:05.737Z,30.64
2023-09-23T12:01:55.434Z,30.79
2023-09-23T12:04:43.186Z,31.11
2023-09-23T12:07:34.073Z,30.77
2023-09-23T12:10:21.956Z,30.31
2023-09-23T12:13:09.654Z,30.72
2023-09-23T12:15:57.451Z,30.68
2023-09-23T12:18:46.043Z,30.79
2023-09-23T12:21:34.061Z,30.69
2023-09-23T12:24:23.135Z,31.01
2023-09-23T12:27:11.121Z,31.07
2023-09-23T12:29:59.615Z,31.07
2023-09-23T12:32:47.796Z,30.83
2023-09-23T12:35:35.708Z,30.89
2023-09-23T12:38:23.604Z,31.02
2023-09-23T12:41:12.981Z,31.11
2023-09-23T12:44:00.984Z,30.84
2023-09-23T12:46:49.245Z,30.80
2023-09-23T12:49:38.061Z,30.61
2023-09-23T12:52:25.925Z,31.05
2023-09-23T12:55:13.697Z,30.91
2023-09-23T12:58:02.920Z,31.26
2023-09-23T13:00:50.718Z,31.38
2023-09-23T13:03:38.764Z,31.25
2023-09-23T13:06:26.878Z,31.28
2023-09-23T13:09:14.513Z,31.34
2023-09-23T13:12:02.806Z,31.31
2023-09-23T13:14:53.433Z,31.24
2023-09-23T13:17:41.286Z,30.95
2023-09-23T13:20:29.194Z,31.03
2023-09-23T13:23:16.999Z,31.16
2023-09-23T13:26:04.931Z,31.13
2023-09-23T13:28:52.644Z,31.22
2023-09-23T13:31:41.846Z,31.07
2023-09-23T13:34:29.616Z,31.10
2023-09-23T13:37:17.433Z,30.97
2023-09-23T13:40:05.983Z,30.93
2023-09-23T13:42:54.061Z,31.11
2023-09-23T13:45:42.069Z,31.18
2023-09-23T13:48:31.337Z,30.99
2023-09-23T13:51:19.362Z,31.02
2023-09-23T13:54:07.381Z,30.87
2023-09-23T13:56:55.405Z,30.84
2023-09-23T13:59:43.146Z,30.67
2023-09-23T14:02:31.421Z,30.79
2023-09-23T14:05:20.662Z,30.68
2023-09-23T14:08:09.813Z,30.99
2023-09-23T14:10:57.852Z,30.89
2023-09-23T14:13:46.542Z,31.04
2023-09-23T14:16:34.867Z,30.98
2023-09-23T14:19:22.932Z,30.86
2023-09-23T14:22:12.107Z,30.79
2023-09-23T14:24:59.808Z,30.91
2023-09-23T14:27:47.553Z,30.96
2023-09-23T14:30:35.347Z,30.83
2023-09-23T14:33:23.073Z,30.85
2023-09-23T14:36:10.997Z,30.92
2023-09-23T14:39:04.579Z,30.83
2023-09-23T14:41:54.321Z,30.72
2023-09-23T14:44:42.031Z,30.76
2023-09-23T14:47:29.920Z,30.86
2023-09-23T14:50:17.934Z,30.89
2023-09-23T14:53:05.995Z,30.87
2023-09-23T14:55:55.556Z,30.73
2023-09-23T14:58:43.336Z,30.58
2023-09-23T15:01:31.260Z,30.72
2023-09-23T15:04:19.313Z,30.69
2023-09-23T15:07:07.232Z,30.45
2023-09-23T15:09:55.350Z,30.36
2023-09-23T15:12:45.273Z,30.47
2023-09-23T15:15:33.246Z,30.53
2023-09-23T15:18:21.026Z,30.42
2023-09-23T15:21:09.214Z,30.25
2023-09-23T15:23:56.930Z,30.28
2023-09-23T15:26:45.273Z,30.20
2023-09-23T15:29:34.492Z,29.95
2023-09-23T15:32:22.379Z,30.07
2023-09-23T15:35:10.964Z,29.97
2023-09-23T15:37:58.781Z,30.00
2023-09-23T15:40:46.771Z,29.83
2023-09-23T15:43:34.882Z,29.83
2023-09-23T15:46:23.996Z,29.81
2023-09-23T15:49:12.912Z,29.76
2023-09-23T15:52:00.925Z,29.70
2023-09-23T15:54:49.171Z,29.73
2023-09-23T15:57:37.597Z,29.77
2023-09-23T16:00:25.791Z,29.62
2023-09-23T16:03:15.407Z,29.49
2023-09-23T16:06:03.726Z,29.49
2023-09-23T16:08:51.758Z,29.25
2023-09-23T16:11:39.532Z,29.16
2023-09-23T16:14:27.384Z,29.23
2023-09-23T16:17:16.493Z,29.14
2023-09-23T16:20:07.280Z,28.96
2023-09-23T16:22:54.965Z,28.85
2023-09-23T16:25:42.702Z,28.75
2023-09-23T16:28:30.537Z,28.62
2023-09-23T16:31:18.334Z,28.51
2023-09-23T16:34:06.729Z,28.45
2023-09-23T16:36:56.270Z,28.43
2023-09-23T16:39:45.033Z,28.44
2023-09-23T16:42:32.763Z,28.43
2023-09-23T16:45:20.872Z,28.36
2023-09-23T16:48:09.212Z,28.34
2023-09-23T16:50:57.086Z,28.24
2023-09-23T16:53:47.225Z,28.18
2023-09-23T16:56:35.147Z,28.40
2023-09-23T16:59:23.295Z,28.37
2023-09-23T17:02:11.264Z,28.36
2023-09-23T17:05:00.228Z,28.34
2023-09-23T17:07:48.140Z,28.26
2023-09-23T17:10:37.398Z,28.04
2023-09-23T17:13:25.190Z,28.00
2023-09-23T17:16:12.911Z,28.05
2023-09-23T17:19:01.129Z,27.94
2023-09-23T17:21:49.681Z,27.95
2023-09-23T17:24:37.642Z,27.62
2023-09-23T17:27:27.328Z,27.41
2023-09-23T17:30:16.208Z,27.28
2023-09-23T17:33:05.573Z,27.37
2023-09-23T17:35:58.046Z,27.40
2023-09-23T17:38:46.482Z,27.20
2023-09-23T17:41:34.951Z,26.90
2023-09-23T17:44:24.268Z,26.93
2023-09-23T17:47:12.610Z,26.89
2023-09-23T17:50:00.519Z,26.90
2023-09-23T17:52:48.751Z,26.79
2023-09-23T17:55:36.579Z,26.80
2023-09-23T17:58:24.723Z,26.78
2023-09-23T18:01:13.963Z,26.74
2023-09-23T18:04:01.958Z,26.64
2023-09-23T18:06:50.980Z,26.56
2023-09-23T18:09:39.940Z,26.58
2023-09-23T18:12:28.112Z,26.80
2023-09-23T18:15:16.638Z,26.74
2023-09-23T18:18:06.332Z,26.59
2023-09-23T18:20:54.399Z,26.53
2023-09-23T18:23:45.239Z,26.54
2023-09-23T18:26:34.533Z,26.45
2023-09-23T18:29:23.094Z,26.41
2023-09-23T18:32:15.827Z,26.35
2023-09-23T18:35:06.017Z,26.41
2023-09-23T18:37:54.019Z,26.34
2023-09-23T18:40:43.472Z,26.37
2023-09-23T18:43:31.503Z,26.30
2023-09-23T18:46:20.777Z,26.30
2023-09-23T18:49:08.742Z,26.19
2023-09-23T18:52:00.289Z,26.02
2023-09-23T18:54:48.429Z,26.01
2023-09-23T18:57:36.253Z,26.03
2023-09-23T19:00:24.776Z,26.39
2023-09-23T19:03:12.733Z,26.00
2023-09-23T19:06:01.113Z,26.08
2023-09-23T19:08:51.528Z,26.05
2023-09-23T19:11:39.667Z,26.01
2023-09-23T19:14:27.891Z,25.89
2023-09-23T19:17:16.174Z,25.82
2023-09-23T19:20:06.835Z,25.85
2023-09-23T19:22:54.803Z,25.93
2023-09-23T19:25:44.042Z,25.79
2023-09-23T19:28:31.911Z,25.86
2023-09-23T19:31:20.328Z,26.01
2023-09-23T19:34:08.688Z,26.16
2023-09-23T19:36:57.574Z,26.23
2023-09-23T19:39:45.563Z,26.13
2023-09-23T19:42:35.732Z,26.01
2023-09-23T19:45:23.741Z,26.09
2023-09-23T19:48:11.759Z,26.09
2023-09-23T19:51:00.710Z,25.96
2023-09-23T19:53:49.034Z,25.76
2023-09-23T19:56:37.145Z,25.97
2023-09-23T19:59:27.760Z,25.99
2023-09-23T20:02:16.046Z,25.86
2023-09-23T20:05:03.725Z,25.98
2023-09-23T20:07:51.707Z,26.11
2023-09-23T20:10:40.031Z,26.31
2023-09-23T20:13:28.200Z,26.05
2023-09-23T20:16:17.364Z,25.77
2023-09-23T20:19:05.287Z,25.93
2023-09-23T20:21:52.956Z,25.67
2023-09-23T20:24:40.726Z,25.61
2023-09-23T20:27:28.473Z,25.54
2023-09-23T20:30:16.627Z,25.59
2023-09-23T20:33:06.724Z,25.61
2023-09-23T20:35:54.692Z,25.46
2023-09-23T20:38:42.780Z,25.53
2023-09-23T20:41:30.822Z,25.72
2023-09-23T20:44:18.561Z,25.38
2023-09-23T20:47:06.473Z,25.01
2023-09-23T20:49:55.550Z,24.83
2023-09-23T20:52:43.429Z,25.06
2023-09-23T20:55:31.775Z,25.09
2023-09-23T20:58:20.573Z,25.08
2023-09-23T21:01:08.271Z,25.05
2023-09-23T21:03:56.334Z,25.28
2023-09-23T21:06:45.724Z,24.98
2023-09-23T21:09:33.478Z,24.82
2023-09-23T21:12:21.842Z,24.66
2023-09-23T21:15:15.751Z,24.62
2023-09-23T21:18:03.554Z,24.67
2023-09-23T21:20:51.431Z,24.51
2023-09-23T21:23:40.684Z,24.90
2023-09-23T21:26:28.663Z,25.30
2023-09-23T21:29:16.493Z,25.41
2023-09-23T21:32:04.696Z,25.27
2023-09-23T21:34:52.613Z,25.28
2023-09-23T21:37:40.460Z,25.01
2023-09-23T21:40:29.669Z,25.05
2023-09-23T21:43:17.847Z,25.04
2023-09-23T21:46:07.883Z,24.75
2023-09-23T21:48:55.672Z,24.25
2023-09-23T21:51:43.630Z,24.56
2023-09-23T21:54:31.323Z,24.55
2023-09-23T21:57:20.630Z,24.50
2023-09-23T22:00:26.780Z,24.15
2023-09-23T22:03:14.837Z,24.24
2023-09-23T22:06:03.588Z,24.07
2023-09-23T22:08:51.852Z,24.24
2023-09-23T22:11:39.998Z,24.02
2023-09-23T22:14:29.327Z,24.24
2023-09-23T22:17:17.072Z,24.56
2023-09-23T22:20:05.442Z,24.63
2023-09-23T22:22:53.181Z,24.16
2023-09-23T22:25:41.549Z,23.95
2023-09-23T22:28:29.535Z,23.71
2023-09-23T22:31:19.339Z,23.62
2023-09-23T22:34:07.616Z,24.52
2023-09-23T22:36:55.404Z,24.50
2023-09-23T22:39:52.792Z,23.99
2023-09-23T22:42:49.032Z,23.63
2023-09-23T22:45:39.810Z,23.77
2023-09-23T22:48:30.227Z,24.27
2023-09-23T22:51:20.892Z,24.25
2023-09-23T22:54:10.740Z,23.57
2023-09-23T22:56:58.495Z,23.38
2023-09-23T22:59:46.406Z,23.57
2023-09-23T23:02:34.148Z,23.60
2023-09-23T23:05:26.369Z,23.39
2023-09-23T23:08:14.482Z,23.33
2023-09-23T23:11:02.328Z,23.08
2023-09-23T23:13:50.624Z,23.11
2023-09-23T23:16:38.964Z,22.93
2023-09-23T23:19:28.003Z,23.28
2023-09-23T23:22:17.312Z,23.51
2023-09-23T23:25:06.095Z,23.70
2023-09-23T23:27:53.939Z,23.78
2023-09-23T23:30:43.929Z,23.67
2023-09-23T23:33:32.049Z,23.20
2023-09-23T23:36:19.827Z,23.06
2023-09-23T23:39:10.169Z,22.83
2023-09-23T23:42:00.127Z,22.74
2023-09-23T23:44:53.177Z,22.99
2023-09-23T23:47:41.775Z,22.78
2023-09-23T23:50:31.462Z,23.12
2023-09-23T23:53:19.394Z,23.03
2023-09-23T23:56:10.482Z,23.14
2023-09-23T23:58:58.367Z,22.78
